Terminal Aerodrome Forecast
Issued by NWS

Home | Current Version | Previous Version | Text Only | Print | Product List | Glossary On
Versions: 1 2 3 4 5 6 7 8 9 10 11 12 13 14 15 16 17 18 19 20 21
000
FTUS41 KALY 312000 AAB
TAFPSF
TAF AMD
KPSF 312010Z 3120/0118 22010KT P6SM VCSH SCT040 BKN090
     FM312200 24005KT P6SM SCT050 SCT100
     FM010600 00000KT 2SM BR SCT008 SCT250
     FM011100 24005KT P6SM SCT035=

USA.gov is the U.S. government's official web portal to all federal, state and local government web resources and services.